Time;durP1;ratioP1;P1;durP2;ratioP2;P2;SDS_P1;SDS_P2;PMS_P1;PMS_P2;Temp;Humidity;BMP_temperature;BMP_pressure;BME280_temperature;BME280_humidity;BME280_pressure;Samples;Min_cycle;Max_cycle;Signal;HPM_P1;HPM_P2
2023/06/21 00:00:31;;;;;;;23.52;16.90;;;19.20;99.90;;;;;;4958139;28;20101;-89
2023/06/21 00:02:59;;;;;;;24.33;17.40;;;19.20;99.90;;;;;;4957242;28;20047;-90
2023/06/21 00:05:27;;;;;;;23.65;15.95;;;18.90;99.90;;;;;;4973054;28;20042;-89
2023/06/21 00:07:54;;;;;;;23.63;16.35;;;19.30;99.90;;;;;;4957209;28;20089;-89
2023/06/21 00:10:28;;;;;;;23.77;16.58;;;19.70;99.90;;;;;;4957185;28;20133;-89
2023/06/21 00:12:54;;;;;;;25.20;16.35;;;19.20;99.90;;;;;;4974126;28;20053;-89
2023/06/21 00:15:23;;;;;;;23.65;16.77;;;19.30;99.90;;;;;;4957489;28;20050;-90
2023/06/21 00:17:49;;;;;;;24.45;16.38;;;19.20;99.90;;;;;;4956886;28;20111;-89
2023/06/21 00:20:15;;;;;;;23.63;16.17;;;19.10;99.90;;;;;;4956861;28;20047;-89
2023/06/21 00:22:45;;;;;;;24.63;16.50;;;19.20;99.90;;;;;;4957282;28;20043;-90
2023/06/21 00:25:29;;;;;;;23.70;16.40;;;19.10;99.90;;;;;;4964394;28;20126;-89
2023/06/21 00:27:55;;;;;;;24.73;16.25;;;19.10;99.90;;;;;;4975351;28;20042;-89
2023/06/21 00:30:21;;;;;;;24.20;16.58;;;19.10;99.90;;;;;;4957596;28;20486;-89
2023/06/21 00:33:07;;;;;;;24.60;16.73;;;19.40;99.90;;;;;;4974407;28;20442;-89
2023/06/21 00:35:33;;;;;;;23.65;17.23;;;19.00;99.90;;;;;;4957248;28;20142;-89
2023/06/21 00:38:05;;;;;;;27.40;18.67;;;19.10;99.90;;;;;;4974595;28;20070;-89
2023/06/21 00:43:06;;;;;;;24.92;18.15;;;19.00;99.90;;;;;;5038114;23;20066;-89
2023/06/21 00:45:39;;;;;;;29.73;19.95;;;19.00;99.90;;;;;;4978989;28;20042;-89
2023/06/21 00:48:08;;;;;;;25.90;18.15;;;19.00;99.90;;;;;;4993169;28;20050;-89
2023/06/21 00:50:33;;;;;;;26.27;19.27;;;19.00;99.90;;;;;;4980549;28;20490;-89
2023/06/21 00:52:59;;;;;;;28.55;19.75;;;19.40;99.90;;;;;;4977310;28;20030;-89
2023/06/21 00:55:25;;;;;;;32.65;20.55;;;19.00;99.90;;;;;;4993597;28;20473;-89
2023/06/21 00:57:51;;;;;;;28.92;20.20;;;19.00;99.90;;;;;;4981373;28;20050;-88
2023/06/21 01:00:23;;;;;;;27.35;19.30;;;18.90;99.90;;;;;;4982230;28;20125;-89
2023/06/21 01:02:53;;;;;;;29.67;19.98;;;18.90;99.90;;;;;;5004200;28;20098;-89
2023/06/21 01:05:22;;;;;;;28.35;20.13;;;18.90;99.90;;;;;;5009415;28;20042;-88
2023/06/21 01:08:07;;;;;;;27.45;19.63;;;18.90;99.90;;;;;;4979534;28;20375;-89
2023/06/21 01:10:57;;;;;;;25.52;18.75;;;18.80;99.90;;;;;;4979654;28;20046;-89
2023/06/21 01:13:40;;;;;;;29.10;19.60;;;18.90;99.90;;;;;;4997047;28;20038;-89
2023/06/21 01:16:15;;;;;;;26.67;19.30;;;18.60;99.90;;;;;;4996567;28;20042;-89
2023/06/21 01:18:45;;;;;;;30.27;19.70;;;19.00;99.90;;;;;;4979809;28;20042;-89
2023/06/21 01:21:18;;;;;;;29.70;20.23;;;19.30;99.90;;;;;;4979284;28;20454;-89
2023/06/21 01:24:08;;;;;;;30.60;20.92;;;18.90;99.90;;;;;;4980562;28;20046;-89
2023/06/21 01:26:52;;;;;;;31.90;21.30;;;18.60;99.90;;;;;;4981281;28;20057;-89
2023/06/21 01:29:23;;;;;;;29.75;20.77;;;18.60;99.90;;;;;;4979107;28;20393;-88
2023/06/21 01:31:52;;;;;;;31.45;21.60;;;18.60;99.90;;;;;;4979509;28;20125;-89
2023/06/21 01:34:18;;;;;;;31.27;22.05;;;18.60;99.90;;;;;;4997015;28;20042;-89
2023/06/21 01:36:44;;;;;;;34.28;22.35;;;18.60;99.90;;;;;;4978810;28;20097;-89
2023/06/21 01:39:10;;;;;;;34.45;23.13;;;18.50;99.90;;;;;;4979244;28;20050;-89
2023/06/21 01:41:36;;;;;;;33.45;22.92;;;18.80;99.90;;;;;;4983412;28;20463;-89
2023/06/21 01:44:09;;;;;;;36.03;23.35;;;18.90;99.90;;;;;;4986603;28;20508;-89
2023/06/21 01:46:35;;;;;;;33.10;22.52;;;18.50;99.90;;;;;;4996940;28;20410;-89
2023/06/21 01:49:03;;;;;;;36.33;23.65;;;18.60;99.90;;;;;;4996383;28;20512;-89
2023/06/21 01:51:29;;;;;;;35.78;23.67;;;18.40;99.90;;;;;;4996667;28;20073;-90
2023/06/21 01:53:55;;;;;;;36.08;24.58;;;18.40;99.90;;;;;;4979153;28;20147;-89
2023/06/21 01:56:23;;;;;;;37.83;24.15;;;18.50;99.90;;;;;;4979097;28;20049;-89
2023/06/21 01:58:49;;;;;;;35.00;23.58;;;18.60;99.90;;;;;;4978276;28;20042;-88
2023/06/21 02:01:17;;;;;;;37.10;24.65;;;18.50;99.90;;;;;;4992714;28;20047;-89
2023/06/21 02:03:48;;;;;;;35.08;22.63;;;18.40;99.90;;;;;;4959750;28;20050;-89
2023/06/21 02:06:15;;;;;;;40.03;25.00;;;18.40;99.90;;;;;;4976051;28;20097;-89
2023/06/21 02:08:41;;;;;;;39.25;25.20;;;18.40;99.90;;;;;;4959433;28;20097;-89
2023/06/21 02:11:07;;;;;;;38.30;24.38;;;18.30;99.90;;;;;;4976682;28;20050;-89
2023/06/21 02:13:33;;;;;;;36.47;24.25;;;18.30;99.90;;;;;;4959528;28;20045;-89
2023/06/21 02:15:59;;;;;;;41.05;25.70;;;18.50;99.90;;;;;;4982423;28;20042;-88
2023/06/21 02:18:25;;;;;;;40.85;25.70;;;18.40;99.90;;;;;;4992349;28;20058;-89
2023/06/21 02:20:52;;;;;;;40.00;26.73;;;19.00;99.90;;;;;;4959895;28;20046;-89
2023/06/21 02:23:17;;;;;;;40.72;26.10;;;18.40;99.90;;;;;;4979998;28;20107;-89
2023/06/21 02:25:43;;;;;;;40.47;26.38;;;18.60;99.90;;;;;;4960389;28;20079;-88
2023/06/21 02:28:09;;;;;;;42.55;27.45;;;18.50;99.90;;;;;;4959339;28;20050;-89
2023/06/21 02:30:34;;;;;;;44.72;28.27;;;18.40;99.90;;;;;;4959394;28;20050;-89
2023/06/21 02:33:00;;;;;;;42.20;27.15;;;18.40;99.90;;;;;;4975672;28;20039;-87
2023/06/21 02:35:25;;;;;;;41.45;27.52;;;19.00;99.90;;;;;;4959165;28;20490;-89
2023/06/21 02:37:51;;;;;;;44.90;28.70;;;18.90;99.90;;;;;;4958980;28;20065;-89
2023/06/21 02:40:17;;;;;;;43.95;27.67;;;18.70;99.90;;;;;;4958072;28;20050;-88
2023/06/21 02:42:43;;;;;;;41.25;27.58;;;18.70;99.90;;;;;;4976259;28;20043;-88
2023/06/21 02:45:09;;;;;;;43.58;28.05;;;18.50;99.90;;;;;;4958496;28;20047;-88
2023/06/21 02:47:35;;;;;;;43.40;28.13;;;18.50;99.90;;;;;;4958813;28;20051;-88
2023/06/21 02:50:04;;;;;;;44.33;28.80;;;18.40;99.90;;;;;;4958920;28;20089;-88
2023/06/21 02:52:30;;;;;;;47.85;29.27;;;18.40;99.90;;;;;;4976403;28;20139;-89
2023/06/21 02:54:57;;;;;;;43.70;28.33;;;18.40;99.90;;;;;;5013821;23;20039;-88
2023/06/21 02:57:23;;;;;;;48.00;30.23;;;18.20;99.90;;;;;;4959228;28;20057;-89
2023/06/21 02:59:49;;;;;;;44.47;27.95;;;18.20;99.90;;;;;;4956463;28;20497;-88
2023/06/21 03:02:16;;;;;;;43.55;29.45;;;18.20;99.90;;;;;;4955519;29;20515;-88
2023/06/21 03:04:42;;;;;;;47.45;29.83;;;18.10;99.90;;;;;;4957171;28;20051;-89
2023/06/21 03:07:08;;;;;;;44.72;28.17;;;18.20;99.90;;;;;;4956471;28;20043;-88
2023/06/21 03:09:34;;;;;;;44.83;29.50;;;18.10;99.90;;;;;;4955834;29;20105;-88
2023/06/21 03:12:02;;;;;;;43.00;27.65;;;18.10;99.90;;;;;;4954519;28;20134;-89
2023/06/21 03:14:29;;;;;;;47.55;29.10;;;18.10;99.90;;;;;;4956450;28;20183;-88
2023/06/21 03:16:57;;;;;;;41.25;27.75;;;18.00;99.90;;;;;;4954600;29;20043;-88
2023/06/21 03:19:23;;;;;;;44.83;29.10;;;18.10;99.90;;;;;;4955834;28;20380;-88
2023/06/21 03:21:49;;;;;;;47.10;28.75;;;18.10;99.90;;;;;;4954118;29;20046;-89
2023/06/21 03:24:16;;;;;;;45.20;29.00;;;18.00;99.90;;;;;;4954873;29;20039;-89
2023/06/21 03:26:41;;;;;;;45.60;29.27;;;18.00;99.90;;;;;;4956237;28;20039;-87
2023/06/21 03:29:08;;;;;;;47.35;29.50;;;18.10;99.90;;;;;;4954085;28;20565;-88
2023/06/21 03:31:34;;;;;;;54.03;30.02;;;17.90;99.90;;;;;;4956553;28;20039;-89
2023/06/21 03:34:00;;;;;;;48.70;29.02;;;18.00;99.90;;;;;;4968258;28;20053;-88
2023/06/21 03:36:26;;;;;;;46.42;30.20;;;18.00;99.90;;;;;;4956000;29;20075;-88
2023/06/21 03:38:52;;;;;;;52.63;30.92;;;18.70;99.90;;;;;;4955997;28;20562;-88
2023/06/21 03:41:17;;;;;;;51.20;30.98;;;17.90;99.90;;;;;;4954811;28;20035;-88
2023/06/21 03:43:43;;;;;;;45.33;29.00;;;17.90;99.90;;;;;;4955724;29;20094;-89
2023/06/21 03:46:08;;;;;;;48.67;29.73;;;18.00;99.90;;;;;;4954527;29;20393;-89
2023/06/21 03:48:34;;;;;;;49.92;31.13;;;18.00;99.90;;;;;;4956111;29;20043;-89
2023/06/21 03:51:02;;;;;;;48.72;29.65;;;18.10;99.90;;;;;;4959015;28;20054;-88
2023/06/21 03:53:28;;;;;;;48.90;29.73;;;18.00;99.90;;;;;;4954734;28;20371;-88
2023/06/21 03:55:56;;;;;;;49.55;30.35;;;17.90;99.90;;;;;;4938252;29;20062;-89
2023/06/21 03:58:21;;;;;;;54.45;29.67;;;18.50;99.90;;;;;;4957478;29;20051;-89
2023/06/21 04:00:47;;;;;;;51.25;30.67;;;18.40;99.90;;;;;;4955370;28;20052;-89
2023/06/21 04:03:13;;;;;;;46.65;28.98;;;18.00;99.90;;;;;;4939470;28;20116;-88
2023/06/21 04:05:38;;;;;;;47.58;30.55;;;18.10;99.90;;;;;;4936272;29;20480;-89
2023/06/21 04:08:04;;;;;;;51.13;31.58;;;18.10;99.90;;;;;;4935954;29;20570;-89
2023/06/21 04:10:33;;;;;;;49.80;30.45;;;18.70;99.90;;;;;;4954353;29;20039;-88
2023/06/21 04:12:58;;;;;;;49.85;29.33;;;17.90;99.90;;;;;;4959021;28;20387;-88
2023/06/21 04:15:26;;;;;;;48.13;29.75;;;18.00;99.90;;;;;;4954532;29;20042;-89
2023/06/21 04:17:55;;;;;;;48.58;29.48;;;18.00;99.90;;;;;;4953948;29;20055;-88
2023/06/21 04:20:23;;;;;;;49.25;30.88;;;18.00;99.90;;;;;;4955059;29;20051;-88
2023/06/21 04:22:49;;;;;;;46.78;29.38;;;18.00;99.90;;;;;;4956267;29;20483;-88
2023/06/21 04:25:16;;;;;;;46.95;30.67;;;18.00;99.90;;;;;;4955344;29;20182;-89
2023/06/21 04:27:45;;;;;;;48.65;30.00;;;18.00;99.90;;;;;;4953994;28;20087;-88
2023/06/21 04:30:11;;;;;;;43.30;29.08;;;18.10;99.90;;;;;;4955320;28;20054;-88
2023/06/21 04:32:44;;;;;;;46.67;30.30;;;18.10;99.90;;;;;;4954647;28;20058;-89
2023/06/21 04:35:15;;;;;;;49.90;30.88;;;18.10;99.90;;;;;;4953539;29;20047;-89
2023/06/21 04:37:45;;;;;;;47.75;30.83;;;18.20;99.90;;;;;;4954949;28;20050;-89
2023/06/21 04:40:15;;;;;;;48.28;30.17;;;18.20;99.90;;;;;;4954498;28;20051;-89
2023/06/21 04:42:57;;;;;;;50.75;31.23;;;18.10;99.90;;;;;;4955336;28;20050;-89
2023/06/21 04:45:25;;;;;;;49.60;30.35;;;19.10;99.90;;;;;;4955529;28;20126;-88
2023/06/21 04:47:56;;;;;;;48.92;30.08;;;18.20;99.90;;;;;;5035814;23;20047;-88
2023/06/21 04:50:24;;;;;;;50.75;31.65;;;18.10;99.90;;;;;;4985918;23;20051;-89
2023/06/21 04:52:50;;;;;;;50.13;31.58;;;18.20;99.90;;;;;;4956446;28;20142;-89
2023/06/21 04:55:19;;;;;;;47.92;31.27;;;18.10;99.90;;;;;;4957805;28;20137;-89
2023/06/21 04:57:46;;;;;;;48.22;30.83;;;18.20;99.90;;;;;;4974799;28;20126;-87
2023/06/21 05:00:12;;;;;;;47.17;30.88;;;18.40;99.90;;;;;;4956629;28;20074;-88
2023/06/21 05:02:39;;;;;;;49.92;32.13;;;18.30;99.90;;;;;;4973421;28;20034;-90
2023/06/21 05:05:04;;;;;;;50.33;32.55;;;18.40;99.90;;;;;;4974179;28;20043;-90
2023/06/21 05:07:30;;;;;;;52.63;32.63;;;18.40;99.90;;;;;;4956854;28;20082;-90
2023/06/21 05:09:55;;;;;;;48.90;32.63;;;18.50;99.90;;;;;;4960688;28;20109;-91
2023/06/21 05:12:21;;;;;;;50.42;31.90;;;18.60;99.90;;;;;;4978066;28;20047;-91
2023/06/21 05:14:47;;;;;;;52.22;33.15;;;18.50;99.90;;;;;;4957947;28;20106;-92
2023/06/21 05:17:16;;;;;;;52.08;32.90;;;18.60;99.90;;;;;;4978174;28;20057;-91
2023/06/21 05:19:48;;;;;;;49.80;32.22;;;18.60;99.90;;;;;;4994674;28;20397;-91
2023/06/21 05:22:14;;;;;;;47.33;32.00;;;18.50;99.90;;;;;;4978310;28;20490;-90
2023/06/21 05:24:56;;;;;;;47.50;30.98;;;19.30;99.90;;;;;;4989957;28;20050;-91
2023/06/21 05:27:22;;;;;;;50.85;32.40;;;18.70;99.90;;;;;;5002116;28;20048;-92
2023/06/21 05:29:48;;;;;;;49.10;31.13;;;18.70;99.90;;;;;;4994533;28;20043;-90
2023/06/21 05:32:20;;;;;;;46.15;31.25;;;19.20;99.90;;;;;;4981533;28;20042;-93
2023/06/21 05:34:58;;;;;;;50.92;32.35;;;19.60;99.90;;;;;;4977113;28;20482;-91
2023/06/21 05:37:23;;;;;;;50.83;31.63;;;19.70;99.90;;;;;;4995058;28;20043;-91
2023/06/21 05:39:49;;;;;;;48.15;32.72;;;19.40;99.90;;;;;;4977963;28;20035;-91
2023/06/21 05:42:27;;;;;;;45.53;30.35;;;18.90;99.90;;;;;;4995803;28;20047;-90
2023/06/21 05:44:53;;;;;;;44.80;31.50;;;18.60;99.90;;;;;;4998388;28;20049;-90
2023/06/21 05:47:18;;;;;;;46.33;32.05;;;18.90;99.90;;;;;;4980549;28;20042;-92
2023/06/21 05:49:44;;;;;;;44.55;29.35;;;18.90;99.90;;;;;;4997631;28;20061;-92
2023/06/21 05:52:09;;;;;;;49.25;31.65;;;18.90;99.90;;;;;;4983214;28;20042;-92
2023/06/21 05:54:37;;;;;;;43.78;29.13;;;19.00;99.90;;;;;;4960832;28;20047;-93
2023/06/21 05:57:04;;;;;;;45.53;30.85;;;19.00;99.90;;;;;;4960728;28;20046;-91
2023/06/21 05:59:30;;;;;;;43.53;29.83;;;19.10;99.90;;;;;;4978695;28;20047;-91
2023/06/21 06:01:55;;;;;;;47.75;32.10;;;19.10;99.90;;;;;;4980134;23;20102;-91
2023/06/21 06:04:21;;;;;;;43.72;30.65;;;19.80;99.90;;;;;;4950077;29;20178;-90
2023/06/21 06:06:46;;;;;;;41.80;28.60;;;19.30;99.90;;;;;;4940328;29;20039;-91
2023/06/21 06:09:12;;;;;;;42.22;29.67;;;19.30;99.90;;;;;;4956939;29;20047;-92
2023/06/21 06:11:38;;;;;;;41.60;29.73;;;19.30;99.90;;;;;;4943445;29;20050;-90
2023/06/21 06:14:06;;;;;;;39.95;28.60;;;19.30;99.90;;;;;;4942841;29;20118;-90
2023/06/21 06:16:31;;;;;;;41.58;29.90;;;19.40;99.90;;;;;;4940708;29;20039;-92
2023/06/21 06:18:57;;;;;;;40.28;28.40;;;19.40;99.90;;;;;;4951491;28;20053;-92
2023/06/21 06:21:25;;;;;;;43.13;29.80;;;19.40;99.90;;;;;;4956183;29;20043;-87
2023/06/21 06:23:52;;;;;;;38.60;27.42;;;19.50;99.90;;;;;;4941018;29;20062;-86
2023/06/21 06:26:24;;;;;;;40.95;29.58;;;19.50;99.90;;;;;;4957933;28;20074;-87
2023/06/21 06:28:52;;;;;;;38.50;27.45;;;19.50;99.90;;;;;;5032595;23;20053;-90
2023/06/21 06:31:45;;;;;;;40.22;27.60;;;19.60;99.90;;;;;;4975001;28;20039;-93
2023/06/21 06:34:14;;;;;;;39.33;27.85;;;19.50;99.90;;;;;;4987522;23;20054;-92
2023/06/21 06:36:40;;;;;;;39.63;28.30;;;20.60;99.90;;;;;;5057677;23;20200;-92
2023/06/21 06:39:07;;;;;;;38.50;26.55;;;19.70;99.90;;;;;;4941889;29;20150;-93
2023/06/21 06:41:42;;;;;;;38.33;27.05;;;19.70;99.90;;;;;;4984352;23;20094;-94
2023/06/21 06:44:08;;;;;;;37.55;26.98;;;20.00;99.90;;;;;;4981701;28;20100;-92
2023/06/21 06:46:34;;;;;;;35.67;25.98;;;20.50;99.90;;;;;;4997543;28;20117;-94
2023/06/21 06:49:05;;;;;;;35.50;24.67;;;20.00;99.90;;;;;;4998991;28;20050;-95
2023/06/21 06:51:34;;;;;;;33.95;24.58;;;19.80;99.90;;;;;;4995011;28;20042;-95
2023/06/21 06:54:06;;;;;;;34.85;24.00;;;19.80;99.90;;;;;;4977683;28;20046;-95
2023/06/21 06:56:50;;;;;;;32.47;24.08;;;19.80;99.90;;;;;;4981617;28;20042;-94
2023/06/21 06:59:15;;;;;;;32.50;22.88;;;20.10;99.90;;;;;;4964396;23;20059;-95
2023/06/21 07:01:47;;;;;;;34.15;22.55;;;20.20;99.90;;;;;;4958594;28;20053;-96
2023/06/21 07:04:15;;;;;;;31.02;22.10;;;20.40;99.90;;;;;;4963477;28;20050;-96
2023/06/21 07:07:47;;;;;;;30.08;23.10;;;20.40;99.90;;;;;;4971211;23;20054;-94
2023/06/21 07:10:39;;;;;;;28.80;21.13;;;20.40;99.90;;;;;;4977734;28;20059;-92
2023/06/21 07:13:57;;;;;;;28.17;19.73;;;19.70;99.90;;;;;;4960972;28;20047;-92
2023/06/21 07:22:59;;;;;;;27.98;20.70;;;20.60;99.90;;;;;;5661854;23;21107;-93
2023/06/21 07:29:30;;;;;;;27.67;20.10;;;20.80;99.90;;;;;;4937333;29;20054;-94
2023/06/21 07:31:56;;;;;;;26.92;19.33;;;21.70;99.90;;;;;;4936567;29;20055;-94
2023/06/21 07:34:29;;;;;;;26.40;20.02;;;21.00;99.90;;;;;;4935989;29;20060;-92
2023/06/21 07:37:21;;;;;;;28.50;19.65;;;21.00;99.90;;;;;;4934169;29;20051;-92
2023/06/21 07:44:37;;;;;;;25.23;19.20;;;20.80;99.90;;;;;;4934682;29;20134;-90
2023/06/21 07:47:47;;;;;;;25.00;19.73;;;21.10;99.90;;;;;;4981711;23;20098;-91
2023/06/21 07:50:48;;;;;;;26.33;19.40;;;21.10;99.90;;;;;;4957910;28;20046;-91
2023/06/21 08:54:37;;;;;;;16.20;12.75;;;23.00;99.90;;;;;;4986709;23;20078;-90
2023/06/21 09:24:45;;;;;;;14.32;10.63;;;24.60;99.90;;;;;;6282765;22;20016;-89
2023/06/21 09:27:48;;;;;;;14.43;9.63;;;24.60;99.90;;;;;;6284592;22;20016;-89
2023/06/21 09:30:18;;;;;;;14.88;9.23;;;24.00;99.90;;;;;;6283073;22;20022;-89
2023/06/21 09:32:47;;;;;;;16.08;9.65;;;24.10;99.90;;;;;;6284968;22;20022;-89
2023/06/21 09:35:22;;;;;;;14.73;9.77;;;24.10;99.90;;;;;;6283326;22;20046;-88
2023/06/21 09:37:47;;;;;;;14.23;9.50;;;24.20;99.90;;;;;;6284865;22;20051;-88
2023/06/21 09:40:19;;;;;;;13.65;9.13;;;24.40;99.90;;;;;;6284170;22;20213;-86
2023/06/21 09:42:53;;;;;;;18.80;10.32;;;24.50;99.90;;;;;;6284457;22;20027;-88
2023/06/21 09:45:20;;;;;;;15.07;10.80;;;24.70;99.90;;;;;;6283253;22;20431;-85
2023/06/21 09:47:53;;;;;;;15.20;10.23;;;24.70;99.90;;;;;;6285013;22;20023;-85
2023/06/21 09:50:18;;;;;;;14.38;10.07;;;24.60;99.90;;;;;;6284332;22;20015;-84
2023/06/21 09:52:47;;;;;;;14.00;8.35;;;24.90;99.90;;;;;;6282845;22;20012;-85
2023/06/21 09:55:24;;;;;;;13.68;8.48;;;25.00;99.90;;;;;;6284889;22;20023;-85
2023/06/21 09:58:03;;;;;;;13.05;7.80;;;24.90;99.90;;;;;;6281890;22;20019;-85
2023/06/21 10:00:35;;;;;;;13.18;8.02;;;25.10;99.90;;;;;;6282498;22;20015;-85
2023/06/21 10:03:03;;;;;;;12.10;7.30;;;25.40;99.90;;;;;;6270587;22;20023;-86
2023/06/21 10:05:35;;;;;;;12.95;7.72;;;24.70;99.90;;;;;;6256905;22;20067;-87
2023/06/21 10:08:04;;;;;;;13.25;7.97;;;24.80;99.90;;;;;;6256292;22;20498;-89
2023/06/21 10:10:36;;;;;;;18.38;8.40;;;24.90;99.90;;;;;;6245488;22;20384;-88
2023/06/21 10:13:07;;;;;;;13.52;8.55;;;25.20;99.90;;;;;;6215039;23;20055;-88
2023/06/21 10:15:55;;;;;;;13.68;8.52;;;25.20;99.90;;;;;;6220146;23;20064;-86
2023/06/21 10:18:28;;;;;;;10.93;6.80;;;25.30;99.90;;;;;;6218889;23;20440;-86
2023/06/21 10:21:29;;;;;;;14.10;6.63;;;25.40;99.90;;;;;;6216467;23;20016;-88
2023/06/21 10:23:58;;;;;;;13.23;6.03;;;25.20;99.90;;;;;;6162406;23;20021;-89
2023/06/21 10:29:29;;;;;;;12.55;7.82;;;25.60;99.90;;;;;;6184679;23;20021;-86
2023/06/21 10:32:00;;;;;;;12.75;7.60;;;25.70;99.90;;;;;;6215418;23;20518;-91
2023/06/21 10:34:58;;;;;;;12.80;7.38;;;26.20;99.90;;;;;;6216982;23;20336;-87
2023/06/21 10:38:14;;;;;;;11.88;7.18;;;26.40;99.90;;;;;;6217869;23;20023;-85
2023/06/21 10:40:54;;;;;;;11.45;7.10;;;26.20;99.90;;;;;;6214890;23;20016;-85
2023/06/21 10:43:34;;;;;;;11.02;6.63;;;26.20;99.90;;;;;;6216780;23;20114;-85
2023/06/21 10:46:12;;;;;;;12.30;7.03;;;26.30;99.90;;;;;;6215247;23;20012;-85
2023/06/21 10:48:45;;;;;;;12.20;7.20;;;26.10;99.90;;;;;;6215352;23;20837;-85
2023/06/21 10:51:13;;;;;;;10.98;6.03;;;25.80;99.90;;;;;;6215787;23;20094;-85
2023/06/21 10:53:46;;;;;;;12.27;7.68;;;25.90;99.90;;;;;;6216236;23;20098;-89
2023/06/21 10:56:16;;;;;;;;;;;26.20;99.90;;;;;;6216412;23;20340;-84
2023/06/21 10:58:54;;;;;;;11.18;6.43;;;26.10;99.90;;;;;;6213977;23;19916;-85
2023/06/21 11:01:21;;;;;;;10.80;5.55;;;26.10;99.90;;;;;;6213361;23;20013;-85
2023/06/21 11:04:09;;;;;;;10.65;5.20;;;26.30;99.90;;;;;;6211861;23;20100;-85
2023/06/21 11:06:44;;;;;;;11.30;5.63;;;26.20;99.90;;;;;;6213549;23;20346;-89
2023/06/21 11:09:23;;;;;;;11.07;6.55;;;26.50;99.90;;;;;;6212811;23;20019;-87
2023/06/21 11:11:52;;;;;;;10.30;6.30;;;26.60;99.90;;;;;;6219004;23;20024;-89
2023/06/21 11:14:42;;;;;;;10.70;6.00;;;26.70;99.90;;;;;;6218709;23;20016;-89
2023/06/21 11:17:28;;;;;;;10.10;6.15;;;26.50;99.90;;;;;;6218772;23;20335;-88
2023/06/21 11:20:19;;;;;;;10.05;5.55;;;26.70;99.90;;;;;;6244696;23;20321;-89
2023/06/21 11:23:10;;;;;;;8.40;4.20;;;26.90;99.90;;;;;;6243814;22;20016;-88
2023/06/21 11:25:36;;;;;;;10.73;6.03;;;27.00;99.30;;;;;;6246631;23;20016;-89
2023/06/21 11:31:23;;;;;;;12.75;7.32;;;27.00;99.90;;;;;;6220107;23;20313;-89
2023/06/21 11:33:51;;;;;;;12.95;7.28;;;27.10;99.90;;;;;;6219436;23;20071;-90
2023/06/21 11:36:50;;;;;;;12.20;6.72;;;27.30;99.90;;;;;;6244600;23;20024;-89
2023/06/21 11:39:16;;;;;;;10.43;5.60;;;27.40;98.90;;;;;;6257632;22;20071;-87
2023/06/21 11:41:58;;;;;;;14.68;7.38;;;27.60;99.90;;;;;;6242820;23;20016;-89
2023/06/21 11:44:37;;;;;;;11.73;6.90;;;27.80;99.90;;;;;;6249584;22;20415;-90
2023/06/21 11:47:16;;;;;;;12.40;7.10;;;27.80;98.30;;;;;;6225477;23;20012;-89
2023/06/21 11:49:57;;;;;;;12.70;7.22;;;28.20;99.90;;;;;;6220811;23;20474;-91
2023/06/21 11:52:47;;;;;;;12.25;7.13;;;28.30;99.60;;;;;;6220112;23;20089;-89
2023/06/21 11:55:23;;;;;;;14.25;7.95;;;28.00;98.00;;;;;;6220239;23;20012;-88
2023/06/21 11:58:09;;;;;;;12.90;7.18;;;28.10;98.10;;;;;;6246573;22;20016;-89
2023/06/21 12:00:38;;;;;;;11.98;6.15;;;28.30;98.40;;;;;;6242177;22;20024;-89
2023/06/21 12:03:11;;;;;;;11.20;6.72;;;28.60;99.70;;;;;;6243647;23;20012;-88
2023/06/21 12:06:10;;;;;;;11.13;6.53;;;28.40;97.50;;;;;;6246133;22;20020;-88
2023/06/21 12:17:36;;;;;;;10.40;6.05;;;29.50;99.90;;;;;;6260990;22;20102;-88
2023/06/21 12:20:21;;;;;;;10.98;5.30;;;29.60;95.80;;;;;;6263778;22;20024;-88
2023/06/21 12:22:47;;;;;;;10.38;4.90;;;29.50;95.20;;;;;;6252314;22;20348;-89
2023/06/21 12:25:13;;;;;;;8.77;4.65;;;29.00;98.90;;;;;;6249423;22;20510;-87
2023/06/21 12:32:27;;;;;;;9.63;4.55;;;28.60;94.40;;;;;;6215381;23;20016;-88
2023/06/21 12:39:44;;;;;;;9.38;5.10;;;28.70;96.50;;;;;;6214302;23;20031;-88
2023/06/21 12:46:56;;;;;;;10.13;5.53;;;28.10;95.50;;;;;;6211397;23;20165;-88
2023/06/21 12:54:22;;;;;;;10.07;4.63;;;27.60;96.00;;;;;;6252101;22;20405;-86
2023/06/21 12:56:59;;;;;;;8.75;4.13;;;27.90;95.70;;;;;;6286010;22;20020;-86
2023/06/21 12:59:29;;;;;;;8.68;3.83;;;28.30;94.10;;;;;;6281588;22;20065;-85
2023/06/21 13:02:02;;;;;;;8.50;3.60;;;28.70;95.60;;;;;;6274236;22;20038;-86
2023/06/21 13:04:28;;;;;;;;;;;28.80;96.00;;;;;;6274903;22;20470;-85
2023/06/21 13:07:44;;;;;;;8.25;3.53;;;28.50;92.70;;;;;;6274043;22;19916;-86
2023/06/21 13:12:54;;;;;;;7.97;3.50;;;28.80;97.00;;;;;;6280199;22;20031;-86
2023/06/21 13:15:38;;;;;;;9.15;3.35;;;28.70;93.20;;;;;;6276407;22;20016;-86
2023/06/21 13:18:10;;;;;;;8.43;3.42;;;28.60;92.50;;;;;;6275077;22;20012;-85
2023/06/21 13:23:21;;;;;;;8.45;3.47;;;28.40;92.80;;;;;;6276447;22;20568;-87
2023/06/21 13:25:57;;;;;;;8.38;3.65;;;28.20;94.80;;;;;;6273805;22;20039;-87
2023/06/21 13:28:34;;;;;;;9.05;3.75;;;28.10;93.20;;;;;;6245021;22;20444;-88
2023/06/21 13:31:15;;;;;;;8.43;3.40;;;28.00;94.30;;;;;;6215967;23;20239;-89
2023/06/21 13:34:33;;;;;;;7.65;3.35;;;27.90;93.80;;;;;;6218825;23;20016;-87
2023/06/21 13:36:58;;;;;;;8.20;3.33;;;27.80;93.80;;;;;;6135746;23;20025;-87
2023/06/21 13:39:24;;;;;;;8.13;3.10;;;27.90;95.60;;;;;;6123176;23;20026;-85
2023/06/21 13:42:14;;;;;;;8.63;3.20;;;28.20;95.70;;;;;;6211088;23;20378;-86
2023/06/21 13:45:08;;;;;;;8.45;3.60;;;28.70;92.20;;;;;;6217041;23;20023;-87
2023/06/21 13:47:58;;;;;;;;;;;28.80;92.40;;;;;;6261821;22;20016;-86
2023/06/21 13:50:49;;;;;;;7.70;3.10;;;28.60;91.30;;;;;;6308158;22;19915;-86
2023/06/21 13:53:21;;;;;;;8.95;3.97;;;28.40;93.30;;;;;;6309040;22;20034;-86
2023/06/21 13:55:53;;;;;;;8.20;3.72;;;28.50;94.40;;;;;;6279893;22;20019;-87
2023/06/21 13:58:22;;;;;;;8.88;4.10;;;28.50;94.60;;;;;;6280839;22;20019;-86
2023/06/21 14:00:48;;;;;;;8.35;3.63;;;28.60;93.80;;;;;;6308022;22;20475;-86
2023/06/21 14:03:16;;;;;;;8.05;3.63;;;28.70;95.60;;;;;;6308074;22;20015;-88
2023/06/21 14:05:53;;;;;;;8.77;4.07;;;28.80;94.20;;;;;;6308787;22;20022;-87
2023/06/21 14:08:28;;;;;;;8.73;3.50;;;29.10;94.20;;;;;;6308549;22;20011;-87
2023/06/21 14:11:10;;;;;;;7.95;3.70;;;29.40;92.50;;;;;;6280425;22;20022;-87
2023/06/21 14:13:44;;;;;;;7.93;3.70;;;29.30;90.80;;;;;;6303090;22;20035;-88
2023/06/21 14:16:13;;;;;;;8.20;3.15;;;29.10;90.60;;;;;;6283595;22;20015;-87
2023/06/21 14:18:51;;;;;;;8.07;3.30;;;29.00;90.00;;;;;;6309001;22;20012;-86
2023/06/21 14:21:35;;;;;;;8.23;3.55;;;29.30;91.20;;;;;;6308505;22;20065;-88
2023/06/21 14:24:06;;;;;;;9.57;3.60;;;29.60;92.00;;;;;;6306560;22;20011;-88
2023/06/21 14:26:34;;;;;;;7.70;3.40;;;29.20;90.20;;;;;;6308739;22;20102;-89
2023/06/21 14:29:03;;;;;;;8.48;3.20;;;29.50;92.30;;;;;;6280511;22;20022;-85
2023/06/21 14:31:44;;;;;;;8.73;3.60;;;29.70;92.10;;;;;;6279940;22;20084;-89
2023/06/21 14:34:13;;;;;;;8.52;3.30;;;29.20;89.90;;;;;;6279833;22;20015;-87
2023/06/21 14:36:40;;;;;;;9.85;3.92;;;29.00;90.50;;;;;;6308668;22;20465;-86
2023/06/21 14:39:12;;;;;;;9.93;3.75;;;28.60;93.50;;;;;;6279582;22;20012;-85
2023/06/21 14:41:47;;;;;;;8.10;3.67;;;28.20;91.60;;;;;;6280435;22;20086;-85
2023/06/21 14:44:19;;;;;;;8.52;3.40;;;28.10;93.30;;;;;;6280247;22;20724;-85
2023/06/21 14:46:47;;;;;;;9.07;3.60;;;28.50;92.20;;;;;;6308882;22;20089;-85
2023/06/21 14:49:22;;;;;;;8.80;3.08;;;28.40;92.40;;;;;;6313090;22;20250;-85
2023/06/21 14:51:48;;;;;;;10.43;3.60;;;28.00;92.30;;;;;;6298005;22;20015;-86
2023/06/21 14:54:24;;;;;;;8.30;3.47;;;27.70;93.70;;;;;;6282099;22;20019;-85
2023/06/21 14:56:49;;;;;;;9.23;3.40;;;27.60;93.00;;;;;;6312073;22;20514;-85
2023/06/21 14:59:15;;;;;;;7.72;3.20;;;27.60;94.50;;;;;;6279820;22;20092;-84
2023/06/21 15:01:44;;;;;;;7.95;3.13;;;27.70;94.70;;;;;;6278893;22;20367;-86
2023/06/21 15:04:25;;;;;;;7.60;3.00;;;28.00;94.40;;;;;;6307746;22;20360;-86
2023/06/21 15:07:12;;;;;;;8.80;3.20;;;28.50;92.60;;;;;;6307042;22;20089;-85
2023/06/21 15:09:40;;;;;;;7.63;3.33;;;28.70;91.80;;;;;;6279930;22;20093;-86
2023/06/21 15:12:16;;;;;;;7.35;3.13;;;28.70;93.40;;;;;;6306338;22;20509;-86
2023/06/21 15:14:44;;;;;;;7.80;3.28;;;28.80;93.50;;;;;;6283065;22;20019;-86
2023/06/21 15:17:16;;;;;;;7.88;3.05;;;28.50;92.80;;;;;;6281038;22;20008;-86
2023/06/21 15:20:01;;;;;;;7.70;3.03;;;28.30;93.10;;;;;;6279014;22;20347;-85
2023/06/21 15:22:27;;;;;;;8.38;2.90;;;28.20;91.00;;;;;;6280340;22;20377;-86
2023/06/21 15:24:53;;;;;;;7.78;3.05;;;28.50;93.60;;;;;;6282093;22;20030;-85